EFW21AB LGTS-EGKK
Flight info
| Callsign | EFW21AB |
|---|---|
| Flight time | N/A |
| Altitude | 34000 |
| Route | FSK4B FSK UN128 RUGAS DCT RAXAD DCT GINAM DCT SOSEK DCT NEVAK DCT RISTU DCT TADAM DCT BABIT DCT OLATI DCT ARSIN DCT BUDEX/N0450F360 DCT OKG DCT VELIS DCT SWALM DCT TORNU DCT BATAK DCT GALSO Q63 ARREK Y4 TEBRA TEBRA2G |
| Aircraft | A320/M-SDE3FGIJ1KRWXY/S |
Departure
| Time | 2026-05-06 15:56 |
|---|---|
| Airport | Thessaloniki Macedonia International Airport (LGTS) |
Arrival
| Time | N/A |
|---|---|
| Airport | London Gatwick Airport (EGKK) |
| Time | Latitude | Longitude | Altitude | Speed | Heading |
|---|---|---|---|---|---|
| 2026-05-06 15:08 | 40.52282 | 22.97625 | 29 ft | 0 kts | 45° |
| 2026-05-06 15:48 | 40.52272 | 22.97611 | 28 ft | 4 kts | 45° |
| 2026-05-06 15:48 | 40.52256 | 22.97590 | 28 ft | 4 kts | 47° |
| 2026-05-06 15:48 | 40.52244 | 22.97565 | 28 ft | 4 kts | 105° |
| 2026-05-06 15:49 | 40.52259 | 22.97539 | 28 ft | 4 kts | 137° |
| 2026-05-06 15:49 | 40.52276 | 22.97517 | 28 ft | 2 kts | 135° |
| 2026-05-06 15:49 | 40.52277 | 22.97515 | 28 ft | 0 kts | 135° |
| 2026-05-06 15:50 | 40.52273 | 22.97521 | 28 ft | 2 kts | 135° |
| 2026-05-06 15:51 | 40.52252 | 22.97547 | 28 ft | 9 kts | 135° |
| 2026-05-06 15:51 | 40.52202 | 22.97613 | 28 ft | 11 kts | 138° |
| 2026-05-06 15:51 | 40.52132 | 22.97675 | 28 ft | 13 kts | 144° |
| 2026-05-06 15:51 | 40.52067 | 22.97760 | 29 ft | 12 kts | 135° |
| 2026-05-06 15:52 | 40.52039 | 22.97851 | 29 ft | 12 kts | 72° |
| 2026-05-06 15:52 | 40.52073 | 22.97960 | 28 ft | 14 kts | 68° |
| 2026-05-06 15:52 | 40.52103 | 22.98083 | 28 ft | 15 kts | 90° |
| 2026-05-06 15:52 | 40.52079 | 22.98222 | 28 ft | 16 kts | 105° |
| 2026-05-06 15:53 | 40.52049 | 22.98373 | 28 ft | 18 kts | 103° |
| 2026-05-06 15:53 | 40.52019 | 22.98533 | 28 ft | 17 kts | 104° |
| 2026-05-06 15:53 | 40.51993 | 22.98664 | 28 ft | 10 kts | 113° |
| 2026-05-06 15:53 | 40.51925 | 22.98671 | 28 ft | 11 kts | 193° |
| 2026-05-06 15:54 | 40.51848 | 22.98678 | 28 ft | 12 kts | 131° |
| 2026-05-06 15:54 | 40.51765 | 22.98696 | 28 ft | 13 kts | 193° |
| 2026-05-06 15:54 | 40.51696 | 22.98691 | 29 ft | 9 kts | 182° |
| 2026-05-06 15:54 | 40.51686 | 22.98621 | 28 ft | 10 kts | 283° |
| 2026-05-06 15:55 | 40.51720 | 22.98441 | 28 ft | 47 kts | 284° |
| 2026-05-06 15:55 | 40.51851 | 22.97741 | 28 ft | 108 kts | 284° |
| 2026-05-06 15:55 | 40.52076 | 22.96560 | 30 ft | 156 kts | 284° |
| 2026-05-06 15:55 | 40.52373 | 22.95054 | 318 ft | 169 kts | 286° |
| 2026-05-06 15:56 | 40.52705 | 22.93610 | 933 ft | 164 kts | 284° |
| 2026-05-06 15:56 | 40.53027 | 22.92166 | 1286 ft | 173 kts | 281° |
| 2026-05-06 15:56 | 40.53370 | 22.90551 | 1458 ft | 195 kts | 282° |
| 2026-05-06 15:56 | 40.53762 | 22.88743 | 1667 ft | 218 kts | 285° |
| 2026-05-06 15:57 | 40.54638 | 22.86988 | 1849 ft | 247 kts | 321° |
| 2026-05-06 15:57 | 40.56291 | 22.86136 | 2156 ft | 268 kts | 359° |
| 2026-05-06 15:57 | 40.58175 | 22.86329 | 2811 ft | 274 kts | 5° |
| 2026-05-06 15:57 | 40.60097 | 22.86328 | 3608 ft | 278 kts | 356° |
| 2026-05-06 15:58 | 40.62035 | 22.86166 | 4427 ft | 281 kts | 354° |
| 2026-05-06 15:58 | 40.63975 | 22.85947 | 5326 ft | 280 kts | 354° |
| 2026-05-06 15:58 | 40.65916 | 22.85687 | 6169 ft | 280 kts | 347° |
| 2026-05-06 15:58 | 40.67799 | 22.85070 | 6972 ft | 278 kts | 342° |
| 2026-05-06 15:59 | 40.69670 | 22.84398 | 7745 ft | 280 kts | 342° |
| 2026-05-06 15:59 | 40.71514 | 22.83589 | 8522 ft | 280 kts | 337° |
| 2026-05-06 15:59 | 40.73339 | 22.82645 | 9279 ft | 282 kts | 336° |
| 2026-05-06 15:59 | 40.75156 | 22.81665 | 9997 ft | 284 kts | 335° |
| 2026-05-06 16:00 | 40.77020 | 22.80642 | 10354 ft | 300 kts | 335° |
| 2026-05-06 16:00 | 40.79014 | 22.79542 | 10480 ft | 321 kts | 335° |
| 2026-05-06 16:00 | 40.81133 | 22.78378 | 10742 ft | 336 kts | 336° |
| 2026-05-06 16:00 | 40.83326 | 22.77183 | 11188 ft | 345 kts | 335° |
| 2026-05-06 16:01 | 40.85552 | 22.75979 | 11781 ft | 348 kts | 336° |
| 2026-05-06 16:01 | 40.87814 | 22.74757 | 12341 ft | 353 kts | 336° |
| 2026-05-06 16:01 | 40.90087 | 22.73530 | 13012 ft | 353 kts | 336° |
| 2026-05-06 16:01 | 40.92377 | 22.72293 | 13630 ft | 356 kts | 336° |
| 2026-05-06 16:02 | 40.94667 | 22.71057 | 14260 ft | 357 kts | 336° |
| 2026-05-06 16:02 | 40.96970 | 22.69812 | 14802 ft | 359 kts | 336° |
| 2026-05-06 16:02 | 40.99288 | 22.68556 | 15331 ft | 361 kts | 336° |
| 2026-05-06 16:02 | 41.01622 | 22.67289 | 15829 ft | 364 kts | 336° |
| 2026-05-06 16:03 | 41.03971 | 22.66008 | 16359 ft | 366 kts | 336° |
| 2026-05-06 16:03 | 41.06332 | 22.64716 | 16895 ft | 369 kts | 335° |
| 2026-05-06 16:03 | 41.08710 | 22.63414 | 17435 ft | 371 kts | 335° |
| 2026-05-06 16:03 | 41.11104 | 22.62106 | 18007 ft | 373 kts | 335° |
| 2026-05-06 16:04 | 41.13511 | 22.60791 | 18539 ft | 375 kts | 335° |
| 2026-05-06 16:04 | 41.15898 | 22.59487 | 19029 ft | 377 kts | 334° |
| 2026-05-06 16:04 | 41.18338 | 22.58155 | 19482 ft | 381 kts | 335° |
| 2026-05-06 16:04 | 41.20797 | 22.56815 | 19988 ft | 383 kts | 335° |
| 2026-05-06 16:05 | 41.23267 | 22.55468 | 20491 ft | 385 kts | 335° |
| 2026-05-06 16:05 | 41.25748 | 22.54111 | 20996 ft | 386 kts | 335° |
| 2026-05-06 16:05 | 41.28237 | 22.52743 | 21480 ft | 388 kts | 335° |
| 2026-05-06 16:05 | 41.30738 | 22.51370 | 21949 ft | 390 kts | 335° |
| 2026-05-06 16:06 | 41.33250 | 22.49990 | 22380 ft | 391 kts | 334° |
| 2026-05-06 16:06 | 41.35773 | 22.48600 | 22815 ft | 393 kts | 335° |
| 2026-05-06 16:06 | 41.38306 | 22.47205 | 23262 ft | 395 kts | 335° |
| 2026-05-06 16:06 | 41.40851 | 22.45803 | 23687 ft | 397 kts | 334° |
| 2026-05-06 16:07 | 41.43410 | 22.44392 | 23990 ft | 400 kts | 334° |
| 2026-05-06 16:07 | 41.45990 | 22.42966 | 24300 ft | 403 kts | 334° |
| 2026-05-06 16:07 | 41.48584 | 22.41532 | 24639 ft | 405 kts | 334° |
| 2026-05-06 16:07 | 41.51193 | 22.40089 | 24958 ft | 407 kts | 334° |
| 2026-05-06 16:08 | 41.53815 | 22.38640 | 25265 ft | 409 kts | 334° |
| 2026-05-06 16:08 | 41.56451 | 22.37182 | 25577 ft | 411 kts | 334° |
| 2026-05-06 16:08 | 41.59092 | 22.35721 | 25879 ft | 413 kts | 334° |
| 2026-05-06 16:08 | 41.61751 | 22.34248 | 26193 ft | 415 kts | 334° |
| 2026-05-06 16:09 | 41.64420 | 22.32763 | 26494 ft | 416 kts | 334° |
| 2026-05-06 16:09 | 41.67103 | 22.31269 | 26790 ft | 419 kts | 334° |
| 2026-05-06 16:09 | 41.69796 | 22.29769 | 27095 ft | 420 kts | 334° |
| 2026-05-06 16:09 | 41.72501 | 22.28265 | 27434 ft | 421 kts | 334° |
| 2026-05-06 16:10 | 41.75201 | 22.26765 | 27884 ft | 420 kts | 334° |
| 2026-05-06 16:10 | 41.77892 | 22.25267 | 28347 ft | 418 kts | 334° |
| 2026-05-06 16:10 | 41.80574 | 22.23776 | 28779 ft | 417 kts | 334° |
| 2026-05-06 16:10 | 41.83249 | 22.22285 | 29216 ft | 416 kts | 334° |
| 2026-05-06 16:11 | 41.85915 | 22.20795 | 29669 ft | 414 kts | 334° |
| 2026-05-06 16:11 | 41.88573 | 22.19309 | 30094 ft | 413 kts | 334° |
| 2026-05-06 16:11 | 41.91224 | 22.17826 | 30452 ft | 412 kts | 334° |
| 2026-05-06 16:11 | 41.93872 | 22.16344 | 30818 ft | 412 kts | 334° |
| 2026-05-06 16:12 | 41.96512 | 22.14861 | 31183 ft | 411 kts | 334° |
| 2026-05-06 16:12 | 41.99146 | 22.13376 | 31537 ft | 410 kts | 334° |
| 2026-05-06 16:12 | 42.01776 | 22.11893 | 31882 ft | 410 kts | 334° |
| 2026-05-06 16:12 | 42.04405 | 22.10411 | 32225 ft | 410 kts | 334° |
| 2026-05-06 16:13 | 42.07002 | 22.08951 | 32563 ft | 410 kts | 334° |
| 2026-05-06 16:13 | 42.09630 | 22.07471 | 32919 ft | 409 kts | 334° |
| 2026-05-06 16:13 | 42.12255 | 22.05990 | 33275 ft | 409 kts | 334° |
| 2026-05-06 16:13 | 42.14878 | 22.04509 | 33553 ft | 409 kts | 334° |
| 2026-05-06 16:14 | 42.17496 | 22.03029 | 33805 ft | 408 kts | 334° |
| 2026-05-06 16:14 | 42.20116 | 22.01544 | 33960 ft | 409 kts | 334° |
| 2026-05-06 16:14 | 42.25451 | 21.98508 | 33985 ft | 423 kts | 334° |
| 2026-05-06 16:15 | 42.30912 | 21.95405 | 33986 ft | 427 kts | 334° |
| 2026-05-06 16:15 | 42.36402 | 21.92290 | 33974 ft | 428 kts | 334° |
| 2026-05-06 16:16 | 42.41890 | 21.89169 | 33978 ft | 428 kts | 334° |
| 2026-05-06 16:16 | 42.47377 | 21.86038 | 33978 ft | 428 kts | 334° |
| 2026-05-06 16:17 | 42.52867 | 21.82903 | 33979 ft | 428 kts | 334° |
| 2026-05-06 16:17 | 42.58353 | 21.79760 | 33982 ft | 429 kts | 334° |
| 2026-05-06 16:18 | 42.63849 | 21.76605 | 33977 ft | 429 kts | 333° |
| 2026-05-06 16:18 | 42.69346 | 21.73438 | 33974 ft | 429 kts | 333° |
| 2026-05-06 16:19 | 42.74850 | 21.70275 | 33976 ft | 430 kts | 333° |
| 2026-05-06 16:19 | 42.80357 | 21.67096 | 33974 ft | 430 kts | 333° |
| 2026-05-06 16:20 | 42.85858 | 21.63903 | 33980 ft | 430 kts | 333° |
| 2026-05-06 16:20 | 42.91357 | 21.60710 | 33991 ft | 430 kts | 333° |
| 2026-05-06 16:21 | 42.96864 | 21.57519 | 33980 ft | 430 kts | 333° |
| 2026-05-06 16:21 | 43.02370 | 21.54323 | 33983 ft | 430 kts | 333° |
| 2026-05-06 16:22 | 43.07877 | 21.51111 | 33975 ft | 430 kts | 333° |
| 2026-05-06 16:22 | 43.13383 | 21.47887 | 33987 ft | 431 kts | 333° |
| 2026-05-06 16:23 | 43.18891 | 21.44667 | 33967 ft | 430 kts | 333° |
| 2026-05-06 16:23 | 43.24395 | 21.41443 | 33978 ft | 430 kts | 333° |
| 2026-05-06 16:24 | 43.29890 | 21.38195 | 33968 ft | 429 kts | 331° |
| 2026-05-06 16:24 | 43.34974 | 21.33999 | 33955 ft | 426 kts | 324° |
| 2026-05-06 16:25 | 43.39964 | 21.29580 | 33954 ft | 427 kts | 324° |
| 2026-05-06 16:25 | 43.44956 | 21.25162 | 33948 ft | 427 kts | 324° |
| 2026-05-06 16:26 | 43.49942 | 21.20725 | 33951 ft | 426 kts | 324° |
| 2026-05-06 16:26 | 43.54894 | 21.16324 | 33945 ft | 427 kts | 324° |
| 2026-05-06 16:27 | 43.59882 | 21.11883 | 33936 ft | 425 kts | 324° |
| 2026-05-06 16:27 | 43.64861 | 21.07433 | 33913 ft | 426 kts | 324° |
| 2026-05-06 16:28 | 43.69829 | 21.02972 | 33916 ft | 426 kts | 324° |
| 2026-05-06 16:28 | 43.74801 | 20.98504 | 33907 ft | 426 kts | 323° |
| 2026-05-06 16:29 | 43.79777 | 20.94007 | 33912 ft | 428 kts | 324° |
| 2026-05-06 16:29 | 43.84777 | 20.89505 | 33912 ft | 429 kts | 324° |
| 2026-05-06 16:30 | 43.88937 | 20.85752 | 33921 ft | 430 kts | 324° |
| 2026-05-06 16:30 | 43.94794 | 20.80431 | 33922 ft | 430 kts | 324° |
| 2026-05-06 16:31 | 43.99805 | 20.75894 | 33927 ft | 430 kts | 324° |
| 2026-05-06 16:31 | 44.04832 | 20.71338 | 33935 ft | 431 kts | 324° |
| 2026-05-06 16:32 | 44.09846 | 20.66776 | 33940 ft | 431 kts | 324° |
| 2026-05-06 16:32 | 44.14858 | 20.62193 | 33933 ft | 431 kts | 324° |
| 2026-05-06 16:33 | 44.19871 | 20.57604 | 33936 ft | 431 kts | 324° |
| 2026-05-06 16:34 | 44.26542 | 20.51488 | 33933 ft | 431 kts | 323° |
| 2026-05-06 16:34 | 44.31551 | 20.46873 | 33932 ft | 432 kts | 323° |
| 2026-05-06 16:35 | 44.36573 | 20.42246 | 33922 ft | 432 kts | 323° |
| 2026-05-06 16:35 | 44.42404 | 20.36869 | 33913 ft | 431 kts | 324° |
| 2026-05-06 16:36 | 44.46595 | 20.32982 | 33909 ft | 431 kts | 323° |
| 2026-05-06 16:36 | 44.51598 | 20.28335 | 33918 ft | 432 kts | 323° |
| 2026-05-06 16:37 | 44.56608 | 20.23676 | 33920 ft | 432 kts | 323° |
| 2026-05-06 16:37 | 44.61620 | 20.19014 | 33923 ft | 432 kts | 323° |
| 2026-05-06 16:38 | 44.66601 | 20.14376 | 33922 ft | 432 kts | 323° |
| 2026-05-06 16:38 | 44.71601 | 20.09694 | 33927 ft | 432 kts | 323° |
| 2026-05-06 16:39 | 44.76609 | 20.05010 | 33925 ft | 433 kts | 323° |
| 2026-05-06 16:39 | 44.81616 | 20.00311 | 33928 ft | 433 kts | 322° |
| 2026-05-06 16:40 | 44.86619 | 19.95604 | 33928 ft | 432 kts | 322° |
| 2026-05-06 16:40 | 44.91619 | 19.90886 | 33927 ft | 432 kts | 322° |
| 2026-05-06 16:41 | 44.96609 | 19.86168 | 33922 ft | 432 kts | 322° |
| 2026-05-06 16:41 | 45.01601 | 19.81441 | 33915 ft | 432 kts | 322° |
| 2026-05-06 16:42 | 45.06584 | 19.76711 | 33899 ft | 431 kts | 322° |
| 2026-05-06 16:42 | 45.11562 | 19.71969 | 33897 ft | 430 kts | 322° |
| 2026-05-06 16:43 | 45.16524 | 19.67241 | 33887 ft | 431 kts | 322° |
| 2026-05-06 16:43 | 45.21474 | 19.62518 | 33888 ft | 432 kts | 322° |
| 2026-05-06 16:44 | 45.26495 | 19.57714 | 33887 ft | 433 kts | 321° |
| 2026-05-06 16:44 | 45.31456 | 19.52970 | 33892 ft | 433 kts | 321° |
| 2026-05-06 16:45 | 45.36454 | 19.48164 | 33882 ft | 434 kts | 321° |
| 2026-05-06 16:45 | 45.41461 | 19.43327 | 33895 ft | 436 kts | 321° |
| 2026-05-06 16:46 | 45.46482 | 19.38474 | 33911 ft | 436 kts | 321° |
| 2026-05-06 16:46 | 45.51499 | 19.33629 | 33910 ft | 436 kts | 321° |
| 2026-05-06 16:47 | 45.56516 | 19.28769 | 33910 ft | 436 kts | 321° |
| 2026-05-06 16:47 | 45.61529 | 19.23893 | 33902 ft | 436 kts | 321° |
| 2026-05-06 16:48 | 45.66541 | 19.19007 | 33893 ft | 436 kts | 321° |
| 2026-05-06 16:48 | 45.71542 | 19.14125 | 33902 ft | 435 kts | 321° |
| 2026-05-06 16:49 | 45.76532 | 19.09249 | 33901 ft | 434 kts | 321° |
| 2026-05-06 16:49 | 45.81525 | 19.04365 | 33902 ft | 434 kts | 321° |
| 2026-05-06 16:50 | 45.86510 | 18.99454 | 33895 ft | 435 kts | 321° |
| 2026-05-06 16:50 | 45.91492 | 18.94538 | 33902 ft | 435 kts | 321° |
| 2026-05-06 16:51 | 45.96082 | 18.88998 | 33918 ft | 430 kts | 312° |
| 2026-05-06 16:51 | 46.00432 | 18.83171 | 33910 ft | 431 kts | 312° |
| 2026-05-06 16:52 | 46.04813 | 18.77292 | 33916 ft | 431 kts | 312° |
| 2026-05-06 16:52 | 46.09192 | 18.71389 | 33917 ft | 431 kts | 312° |
| 2026-05-06 16:53 | 46.13574 | 18.65479 | 33917 ft | 431 kts | 312° |
| 2026-05-06 16:53 | 46.17947 | 18.59559 | 33924 ft | 432 kts | 311° |
| 2026-05-06 16:54 | 46.22334 | 18.53629 | 33904 ft | 432 kts | 311° |
| 2026-05-06 16:54 | 46.26726 | 18.47676 | 33901 ft | 433 kts | 311° |
| 2026-05-06 16:55 | 46.31117 | 18.41703 | 33912 ft | 433 kts | 311° |
| 2026-05-06 16:55 | 46.35511 | 18.35707 | 33919 ft | 434 kts | 311° |
| 2026-05-06 16:56 | 46.39884 | 18.29708 | 33926 ft | 434 kts | 311° |
| 2026-05-06 16:56 | 46.44274 | 18.23711 | 33916 ft | 434 kts | 311° |
| 2026-05-06 16:57 | 46.48655 | 18.17696 | 33909 ft | 434 kts | 311° |
| 2026-05-06 16:57 | 46.53039 | 18.11653 | 33903 ft | 434 kts | 311° |
| 2026-05-06 16:58 | 46.57394 | 18.05646 | 33911 ft | 434 kts | 311° |
| 2026-05-06 16:58 | 46.61763 | 17.99589 | 33894 ft | 434 kts | 311° |
| 2026-05-06 16:59 | 46.66134 | 17.93500 | 33881 ft | 435 kts | 310° |
| 2026-05-06 16:59 | 46.70411 | 17.87272 | 33879 ft | 434 kts | 309° |
| 2026-05-06 17:00 | 46.74629 | 17.80961 | 33877 ft | 435 kts | 309° |
| 2026-05-06 17:00 | 46.78862 | 17.74646 | 33896 ft | 436 kts | 309° |
| 2026-05-06 17:01 | 46.83124 | 17.68324 | 33876 ft | 437 kts | 309° |
| 2026-05-06 17:01 | 46.87392 | 17.61979 | 33887 ft | 438 kts | 309° |
| 2026-05-06 17:02 | 46.91656 | 17.55613 | 33881 ft | 438 kts | 309° |
| 2026-05-06 17:02 | 46.95907 | 17.49256 | 33876 ft | 437 kts | 309° |
| 2026-05-06 17:03 | 47.00151 | 17.42915 | 33872 ft | 435 kts | 308° |
| 2026-05-06 17:03 | 47.04369 | 17.36555 | 33852 ft | 434 kts | 309° |
| 2026-05-06 17:04 | 47.08593 | 17.30230 | 33837 ft | 434 kts | 309° |
| 2026-05-06 17:04 | 47.12819 | 17.23865 | 33850 ft | 436 kts | 308° |
| 2026-05-06 17:05 | 47.17037 | 17.17475 | 33844 ft | 436 kts | 308° |
| 2026-05-06 17:05 | 47.21257 | 17.11064 | 33855 ft | 437 kts | 308° |
| 2026-05-06 17:06 | 47.25489 | 17.04645 | 33851 ft | 437 kts | 308° |
| 2026-05-06 17:06 | 47.29722 | 16.98213 | 33847 ft | 437 kts | 308° |
| 2026-05-06 17:07 | 47.33974 | 16.91735 | 33848 ft | 439 kts | 308° |
| 2026-05-06 17:07 | 47.38210 | 16.85261 | 33848 ft | 438 kts | 308° |
| 2026-05-06 17:08 | 47.42436 | 16.78775 | 33840 ft | 438 kts | 307° |
| 2026-05-06 17:08 | 47.46610 | 16.72354 | 33832 ft | 436 kts | 307° |
| 2026-05-06 17:09 | 47.50813 | 16.65876 | 33821 ft | 436 kts | 307° |
| 2026-05-06 17:09 | 47.55012 | 16.59393 | 33812 ft | 436 kts | 307° |
| 2026-05-06 17:10 | 47.59202 | 16.52898 | 33818 ft | 436 kts | 307° |
| 2026-05-06 17:10 | 47.63390 | 16.46381 | 33789 ft | 437 kts | 307° |
| 2026-05-06 17:11 | 47.67579 | 16.39855 | 33794 ft | 437 kts | 307° |
| 2026-05-06 17:11 | 47.71767 | 16.33317 | 33802 ft | 437 kts | 307° |
| 2026-05-06 17:12 | 47.75956 | 16.26767 | 33792 ft | 437 kts | 307° |
| 2026-05-06 17:12 | 47.80139 | 16.20206 | 33801 ft | 437 kts | 307° |
| 2026-05-06 17:13 | 47.84319 | 16.13644 | 33787 ft | 437 kts | 307° |
| 2026-05-06 17:13 | 47.88491 | 16.07064 | 33782 ft | 437 kts | 307° |
| 2026-05-06 17:14 | 47.92656 | 16.00472 | 33780 ft | 437 kts | 306° |
| 2026-05-06 17:14 | 47.96819 | 15.93876 | 33783 ft | 437 kts | 307° |
| 2026-05-06 17:15 | 48.00984 | 15.87283 | 33784 ft | 436 kts | 306° |
| 2026-05-06 17:15 | 48.05134 | 15.80670 | 33771 ft | 436 kts | 306° |
| 2026-05-06 17:16 | 48.09251 | 15.74086 | 33754 ft | 436 kts | 306° |
| 2026-05-06 17:16 | 48.13396 | 15.67452 | 33740 ft | 437 kts | 306° |
| 2026-05-06 17:17 | 48.17537 | 15.60804 | 33739 ft | 436 kts | 306° |
| 2026-05-06 17:17 | 48.21676 | 15.54151 | 33757 ft | 436 kts | 306° |
| 2026-05-06 17:18 | 48.25809 | 15.47492 | 33758 ft | 436 kts | 305° |
| 2026-05-06 17:18 | 48.29928 | 15.40838 | 33744 ft | 435 kts | 305° |
| 2026-05-06 17:19 | 48.34035 | 15.34175 | 33738 ft | 434 kts | 305° |
| 2026-05-06 17:19 | 48.38141 | 15.27510 | 33732 ft | 434 kts | 305° |
| 2026-05-06 17:20 | 48.42237 | 15.20844 | 33738 ft | 434 kts | 304° |
| 2026-05-06 17:20 | 48.46333 | 15.14146 | 33733 ft | 434 kts | 304° |
| 2026-05-06 17:21 | 48.50427 | 15.07442 | 33731 ft | 434 kts | 304° |
| 2026-05-06 17:21 | 48.54506 | 15.00738 | 33737 ft | 433 kts | 304° |
| 2026-05-06 17:22 | 48.58577 | 14.94044 | 33734 ft | 433 kts | 304° |
| 2026-05-06 17:22 | 48.62642 | 14.87339 | 33741 ft | 433 kts | 303° |
| 2026-05-06 17:23 | 48.66702 | 14.80606 | 33702 ft | 434 kts | 303° |
| 2026-05-06 17:23 | 48.70777 | 14.73839 | 33696 ft | 436 kts | 303° |
| 2026-05-06 17:24 | 48.74178 | 14.68192 | 33701 ft | 437 kts | 303° |
| 2026-05-06 17:24 | 48.78936 | 14.60273 | 33697 ft | 437 kts | 303° |
| 2026-05-06 17:25 | 48.83033 | 14.53432 | 33832 ft | 440 kts | 304° |
| 2026-05-06 17:25 | 48.85086 | 14.49988 | 34088 ft | 440 kts | 304° |
| 2026-05-06 17:25 | 48.87141 | 14.46537 | 34369 ft | 441 kts | 304° |
| 2026-05-06 17:25 | 48.88528 | 14.44208 | 34554 ft | 440 kts | 304° |
| 2026-05-06 17:26 | 48.90583 | 14.40753 | 34829 ft | 440 kts | 304° |
| 2026-05-06 17:26 | 48.92635 | 14.37304 | 35087 ft | 440 kts | 304° |
| 2026-05-06 17:26 | 48.94686 | 14.33850 | 35340 ft | 440 kts | 304° |
| 2026-05-06 17:26 | 48.96717 | 14.30442 | 35572 ft | 440 kts | 305° |
| 2026-05-06 17:27 | 48.98779 | 14.26999 | 35700 ft | 441 kts | 305° |
| 2026-05-06 17:27 | 49.02919 | 14.20105 | 35739 ft | 441 kts | 306° |
| 2026-05-06 17:28 | 49.07057 | 14.13172 | 35723 ft | 443 kts | 306° |
| 2026-05-06 17:28 | 49.11201 | 14.06210 | 35741 ft | 443 kts | 306° |
| 2026-05-06 17:29 | 49.15336 | 13.99255 | 35726 ft | 442 kts | 305° |
| 2026-05-06 17:29 | 49.19458 | 13.92287 | 35731 ft | 442 kts | 305° |
| 2026-05-06 17:30 | 49.23577 | 13.85301 | 35753 ft | 442 kts | 306° |
| 2026-05-06 17:30 | 49.27690 | 13.78304 | 35745 ft | 443 kts | 306° |
| 2026-05-06 17:31 | 49.31820 | 13.71268 | 35744 ft | 445 kts | 305° |
| 2026-05-06 17:31 | 49.35984 | 13.64174 | 35761 ft | 447 kts | 306° |
| 2026-05-06 17:32 | 49.40121 | 13.57077 | 35775 ft | 445 kts | 305° |
| 2026-05-06 17:32 | 49.44244 | 13.49988 | 35806 ft | 445 kts | 306° |
| 2026-05-06 17:33 | 49.48319 | 13.42957 | 35754 ft | 442 kts | 305° |
| 2026-05-06 17:33 | 49.52396 | 13.35880 | 35752 ft | 442 kts | 305° |
| 2026-05-06 17:34 | 49.56473 | 13.28929 | 35749 ft | 434 kts | 306° |
| 2026-05-06 17:34 | 49.60522 | 13.21891 | 35753 ft | 442 kts | 305° |
| 2026-05-06 17:35 | 49.64588 | 13.14754 | 35757 ft | 443 kts | 305° |
| 2026-05-06 17:35 | 49.68663 | 13.07621 | 35746 ft | 443 kts | 305° |
| 2026-05-06 17:36 | 49.74774 | 12.96913 | 35744 ft | 443 kts | 305° |
| 2026-05-06 17:36 | 49.78850 | 12.89756 | 35748 ft | 443 kts | 305° |
| 2026-05-06 17:37 | 49.80699 | 12.86001 | 35747 ft | 433 kts | 293° |
| 2026-05-06 17:37 | 49.81983 | 12.81846 | 35756 ft | 427 kts | 288° |
| 2026-05-06 17:37 | 49.84368 | 12.73409 | 35768 ft | 428 kts | 287° |
| 2026-05-06 17:38 | 49.86726 | 12.64936 | 35756 ft | 428 kts | 287° |
| 2026-05-06 17:38 | 49.89083 | 12.56462 | 35755 ft | 428 kts | 287° |
| 2026-05-06 17:39 | 49.91440 | 12.47967 | 35749 ft | 429 kts | 287° |
| 2026-05-06 17:39 | 49.93778 | 12.39515 | 35753 ft | 429 kts | 287° |
| 2026-05-06 17:40 | 49.96128 | 12.31004 | 35769 ft | 429 kts | 287° |
| 2026-05-06 17:40 | 49.98551 | 12.22501 | 35760 ft | 431 kts | 288° |
| 2026-05-06 17:41 | 50.01015 | 12.13997 | 35755 ft | 431 kts | 288° |
| 2026-05-06 17:41 | 50.03456 | 12.05484 | 35775 ft | 431 kts | 288° |
| 2026-05-06 17:42 | 50.05883 | 11.96969 | 35782 ft | 431 kts | 288° |
| 2026-05-06 17:42 | 50.08278 | 11.88487 | 35800 ft | 431 kts | 288° |
| 2026-05-06 17:43 | 50.10678 | 11.79941 | 35794 ft | 430 kts | 288° |
| 2026-05-06 17:43 | 50.13069 | 11.71399 | 35793 ft | 430 kts | 288° |
| 2026-05-06 17:44 | 50.15461 | 11.62845 | 35787 ft | 430 kts | 288° |
| 2026-05-06 17:44 | 50.17852 | 11.54293 | 35786 ft | 430 kts | 288° |
| 2026-05-06 17:45 | 50.20238 | 11.45726 | 35794 ft | 431 kts | 288° |
| 2026-05-06 17:45 | 50.22625 | 11.37130 | 35789 ft | 432 kts | 288° |
| 2026-05-06 17:46 | 50.25002 | 11.28517 | 35782 ft | 432 kts | 287° |
| 2026-05-06 17:46 | 50.27367 | 11.19885 | 35788 ft | 432 kts | 287° |
| 2026-05-06 17:47 | 50.29729 | 11.11245 | 35792 ft | 432 kts | 287° |
| 2026-05-06 17:47 | 50.32089 | 11.02594 | 35797 ft | 433 kts | 287° |
| 2026-05-06 17:48 | 50.34438 | 10.93924 | 35791 ft | 433 kts | 287° |
| 2026-05-06 17:48 | 50.36789 | 10.85239 | 35786 ft | 433 kts | 287° |
| 2026-05-06 17:49 | 50.39134 | 10.76606 | 35783 ft | 429 kts | 288° |
| 2026-05-06 17:49 | 50.41461 | 10.67981 | 35796 ft | 430 kts | 288° |
| 2026-05-06 17:50 | 50.43770 | 10.59317 | 35774 ft | 431 kts | 288° |
| 2026-05-06 17:50 | 50.46084 | 10.50582 | 35765 ft | 434 kts | 288° |
| 2026-05-06 17:51 | 50.48085 | 10.41697 | 35768 ft | 431 kts | 283° |
| 2026-05-06 17:51 | 50.49903 | 10.32695 | 35788 ft | 433 kts | 283° |
| 2026-05-06 17:52 | 50.51706 | 10.23683 | 35810 ft | 432 kts | 282° |
| 2026-05-06 17:52 | 50.53506 | 10.14642 | 35766 ft | 432 kts | 283° |
| 2026-05-06 17:53 | 50.55284 | 10.05636 | 35764 ft | 432 kts | 283° |
| 2026-05-06 17:53 | 50.57061 | 9.96591 | 35766 ft | 433 kts | 282° |
| 2026-05-06 17:54 | 50.58837 | 9.87513 | 35778 ft | 434 kts | 282° |
| 2026-05-06 17:54 | 50.60606 | 9.78479 | 35801 ft | 435 kts | 283° |
| 2026-05-06 17:55 | 50.62385 | 9.69369 | 35796 ft | 436 kts | 283° |
| 2026-05-06 17:55 | 50.64160 | 9.60228 | 35797 ft | 437 kts | 283° |
| 2026-05-06 17:56 | 50.65922 | 9.51053 | 35804 ft | 437 kts | 283° |
| 2026-05-06 17:56 | 50.67673 | 9.41883 | 35807 ft | 437 kts | 283° |
| 2026-05-06 17:57 | 50.69422 | 9.32704 | 35824 ft | 437 kts | 283° |
| 2026-05-06 17:57 | 50.71158 | 9.23528 | 35820 ft | 437 kts | 283° |
| 2026-05-06 17:58 | 50.72786 | 9.14305 | 35820 ft | 436 kts | 281° |
| 2026-05-06 17:58 | 50.74185 | 9.05006 | 35816 ft | 435 kts | 279° |
| 2026-05-06 17:59 | 50.75533 | 8.95689 | 35824 ft | 435 kts | 279° |
| 2026-05-06 17:59 | 50.76919 | 8.86384 | 35821 ft | 435 kts | 280° |
| 2026-05-06 18:00 | 50.78324 | 8.77094 | 35822 ft | 435 kts | 280° |
| 2026-05-06 18:00 | 50.79728 | 8.67789 | 35821 ft | 435 kts | 280° |
| 2026-05-06 18:01 | 50.81108 | 8.58479 | 35830 ft | 435 kts | 279° |
| 2026-05-06 18:01 | 50.82483 | 8.49158 | 35829 ft | 435 kts | 279° |
| 2026-05-06 18:02 | 50.83841 | 8.39892 | 35829 ft | 435 kts | 280° |
| 2026-05-06 18:02 | 50.85218 | 8.30499 | 35820 ft | 436 kts | 280° |
| 2026-05-06 18:03 | 50.86568 | 8.21208 | 35820 ft | 436 kts | 280° |
| 2026-05-06 18:03 | 50.87921 | 8.11833 | 35824 ft | 436 kts | 279° |
| 2026-05-06 18:04 | 50.89261 | 8.02455 | 35829 ft | 436 kts | 279° |
| 2026-05-06 18:04 | 50.90600 | 7.93081 | 35838 ft | 437 kts | 280° |
| 2026-05-06 18:05 | 50.91928 | 7.83691 | 35844 ft | 437 kts | 280° |
| 2026-05-06 18:05 | 50.93252 | 7.74280 | 35850 ft | 437 kts | 279° |
| 2026-05-06 18:06 | 50.94558 | 7.64873 | 35866 ft | 437 kts | 279° |
| 2026-05-06 18:06 | 50.95866 | 7.55444 | 35886 ft | 437 kts | 280° |
| 2026-05-06 18:07 | 50.97176 | 7.46018 | 35881 ft | 438 kts | 280° |
| 2026-05-06 18:07 | 50.98476 | 7.36586 | 35878 ft | 437 kts | 280° |
| 2026-05-06 18:08 | 50.99759 | 7.27142 | 35880 ft | 438 kts | 280° |
| 2026-05-06 18:08 | 51.01038 | 7.17699 | 35882 ft | 438 kts | 280° |
| 2026-05-06 18:09 | 51.02312 | 7.08252 | 35887 ft | 438 kts | 280° |
| 2026-05-06 18:09 | 51.03690 | 6.98838 | 35878 ft | 440 kts | 289° |
| 2026-05-06 18:10 | 51.05972 | 6.89813 | 35886 ft | 440 kts | 290° |
| 2026-05-06 18:10 | 51.08263 | 6.80781 | 35896 ft | 441 kts | 290° |
| 2026-05-06 18:11 | 51.10166 | 6.73259 | 35887 ft | 441 kts | 290° |
| 2026-05-06 18:11 | 51.12830 | 6.62672 | 35897 ft | 441 kts | 290° |
| 2026-05-06 18:12 | 51.14721 | 6.55128 | 35897 ft | 441 kts | 290° |
| 2026-05-06 18:12 | 51.16993 | 6.46049 | 35898 ft | 441 kts | 289° |
| 2026-05-06 18:13 | 51.19257 | 6.36963 | 35900 ft | 441 kts | 289° |
| 2026-05-06 18:13 | 51.21502 | 6.27873 | 35899 ft | 441 kts | 289° |
| 2026-05-06 18:14 | 51.23747 | 6.18769 | 35908 ft | 441 kts | 289° |
| 2026-05-06 18:14 | 51.25989 | 6.09639 | 35909 ft | 441 kts | 289° |
| 2026-05-06 18:15 | 51.28226 | 6.00514 | 35909 ft | 441 kts | 289° |
| 2026-05-06 18:15 | 51.30454 | 5.91382 | 35909 ft | 441 kts | 289° |
| 2026-05-06 18:16 | 51.32670 | 5.82240 | 35908 ft | 441 kts | 289° |
| 2026-05-06 18:16 | 51.34878 | 5.73096 | 35919 ft | 441 kts | 289° |
| 2026-05-06 18:17 | 51.37085 | 5.63940 | 35918 ft | 441 kts | 289° |
| 2026-05-06 18:17 | 51.39282 | 5.54785 | 35925 ft | 441 kts | 289° |
| 2026-05-06 18:18 | 51.41471 | 5.45610 | 35927 ft | 441 kts | 289° |
| 2026-05-06 18:18 | 51.43652 | 5.36415 | 35926 ft | 441 kts | 289° |